Terminal Aerodrome Forecast
Issued by NWS Houston/Galveston, TX

Home | Current Version | Previous Version | Text Only | Print | Product List | Glossary On
Versions: 1 2 3 4 5 6 7 8 9 10 11 12 13 14 15 16 17 18 19 20 21 22 23 24
000
FTUS44 KHGX 280132 AAA
TAFGLS
TAF AMD
KGLS 280132Z 2802/2824 36015G22KT 5SM TSRA BR SCT020CB BKN060
      TEMPO 2802/2804 VRB25G35KT 1SM +TSRA BR BKN020CB
     FM280600 16006KT P6SM VCSH BKN025
     FM280900 16008KT P6SM BKN015
     FM281700 16013KT P6SM VCSH BKN025
     FM282100 15014KT P6SM FEW250=

USA.gov is the U.S. government's official web portal to all federal, state and local government web resources and services.